Time;durP1;ratioP1;P1;durP2;ratioP2;P2;SDS_P1;SDS_P2;PMS_P1;PMS_P2;Temp;Humidity;BMP_temperature;BMP_pressure;BME280_temperature;BME280_humidity;BME280_pressure;Samples;Min_cycle;Max_cycle;Signal;HPM_P1;HPM_P2
2023/10/19 00:02:07;;;;;;;11.77;9.27;;;13.30;99.90;;;;;;5038830;28;20666;-61
2023/10/19 00:04:35;;;;;;;10.40;9.10;;;13.30;99.90;;;;;;5044847;28;20198;-61
2023/10/19 00:07:01;;;;;;;14.43;10.40;;;13.20;99.90;;;;;;5046422;28;20209;-63
2023/10/19 00:09:36;;;;;;;11.63;9.37;;;13.10;99.90;;;;;;5043667;28;20201;-62
2023/10/19 00:12:06;;;;;;;10.70;8.87;;;13.30;99.90;;;;;;5042920;28;20252;-62
2023/10/19 00:14:33;;;;;;;12.67;9.50;;;13.40;99.90;;;;;;5045645;28;20699;-62
2023/10/19 00:17:00;;;;;;;11.07;9.20;;;13.40;99.90;;;;;;5045990;28;20584;-63
2023/10/19 00:19:28;;;;;;;10.20;9.10;;;13.40;99.90;;;;;;5043535;28;20710;-62
2023/10/19 00:21:55;;;;;;;11.63;9.70;;;13.50;99.90;;;;;;5042876;28;20707;-61
2023/10/19 00:24:23;;;;;;;12.37;9.83;;;13.40;99.90;;;;;;5044024;28;20221;-61
2023/10/19 00:26:53;;;;;;;10.90;9.43;;;13.40;99.90;;;;;;5045747;28;20201;-61
2023/10/19 00:29:30;;;;;;;10.87;9.33;;;13.30;99.90;;;;;;5044269;28;20583;-61
2023/10/19 00:31:59;;;;;;;10.20;8.97;;;13.20;99.90;;;;;;5042664;28;20209;-62
2023/10/19 00:34:28;;;;;;;10.63;8.87;;;13.10;99.90;;;;;;5044661;28;20309;-62
2023/10/19 00:36:55;;;;;;;10.47;8.77;;;13.10;99.90;;;;;;5046115;28;20210;-61
2023/10/19 00:39:23;;;;;;;12.10;9.10;;;13.10;99.90;;;;;;5044009;28;20202;-62
2023/10/19 00:41:55;;;;;;;10.00;8.87;;;13.20;99.90;;;;;;5042307;28;20202;-61
2023/10/19 00:44:28;;;;;;;10.20;9.20;;;13.40;99.90;;;;;;5043487;28;20668;-61
2023/10/19 00:47:02;;;;;;;10.80;8.17;;;13.50;99.90;;;;;;5045798;28;20299;-61
2023/10/19 00:49:29;;;;;;;10.87;8.20;;;13.70;99.90;;;;;;5042911;28;20225;-61
2023/10/19 00:52:03;;;;;;;9.33;8.20;;;13.70;99.90;;;;;;5042056;28;20207;-61
2023/10/19 00:54:33;;;;;;;7.10;5.90;;;13.80;99.90;;;;;;5044320;28;20251;-61
2023/10/19 00:57:04;;;;;;;5.83;5.23;;;13.90;99.90;;;;;;5045300;28;20577;-62
2023/10/19 00:59:35;;;;;;;7.30;6.43;;;14.10;99.90;;;;;;5042516;28;20290;-61
2023/10/19 01:02:17;;;;;;;8.57;7.63;;;14.20;99.90;;;;;;5042096;28;20285;-61
2023/10/19 01:04:45;;;;;;;8.00;7.13;;;14.20;99.90;;;;;;5034854;28;20205;-62
2023/10/19 01:07:15;;;;;;;7.83;7.00;;;14.20;99.90;;;;;;5041566;28;20206;-62
2023/10/19 01:09:44;;;;;;;6.97;6.27;;;14.30;99.90;;;;;;5044833;28;20225;-60
2023/10/19 01:12:25;;;;;;;7.67;4.57;;;14.40;99.90;;;;;;5045243;28;20198;-62
2023/10/19 01:15:09;;;;;;;3.97;3.33;;;14.60;99.90;;;;;;5035266;28;20229;-62
2023/10/19 01:17:39;;;;;;;4.90;3.83;;;14.70;99.90;;;;;;5044585;28;20201;-61
2023/10/19 01:20:14;;;;;;;6.03;3.53;;;14.90;99.90;;;;;;5044962;28;20287;-60
2023/10/19 01:22:53;;;;;;;7.73;3.40;;;15.00;99.90;;;;;;5033911;28;20198;-61
2023/10/19 01:25:24;;;;;;;6.00;3.03;;;15.10;99.90;;;;;;5042605;28;20202;-61
2023/10/19 01:27:57;;;;;;;3.90;2.83;;;15.20;99.90;;;;;;5044892;28;20566;-62
2023/10/19 01:30:24;;;;;;;4.70;3.08;;;15.30;99.90;;;;;;5042999;28;20232;-61
2023/10/19 01:32:51;;;;;;;3.57;2.60;;;15.50;99.90;;;;;;5041407;28;20256;-61
2023/10/19 01:35:18;;;;;;;2.72;2.20;;;15.50;99.90;;;;;;5041967;28;20264;-61
2023/10/19 01:37:45;;;;;;;5.97;2.80;;;15.60;99.90;;;;;;5044936;28;20206;-60
2023/10/19 01:40:15;;;;;;;4.03;2.47;;;15.70;99.90;;;;;;5044461;28;20279;-61
2023/10/19 01:42:41;;;;;;;6.75;2.65;;;15.80;99.90;;;;;;5033498;28;20206;-62
2023/10/19 01:45:11;;;;;;;4.28;2.70;;;15.90;99.90;;;;;;5041274;28;20194;-61
2023/10/19 01:47:37;;;;;;;5.93;3.17;;;16.00;99.90;;;;;;5044468;28;20240;-61
2023/10/19 01:50:05;;;;;;;5.07;2.45;;;16.00;99.90;;;;;;5044194;28;20221;-62
2023/10/19 01:52:31;;;;;;;3.97;2.95;;;16.20;99.90;;;;;;5041684;28;20209;-61
2023/10/19 01:55:07;;;;;;;5.60;2.55;;;16.30;99.90;;;;;;5040757;28;20240;-61
2023/10/19 01:57:34;;;;;;;3.65;2.10;;;16.30;99.90;;;;;;5043484;28;20640;-61
2023/10/19 02:00:09;;;;;;;3.85;2.75;;;16.40;99.90;;;;;;5044082;28;20225;-60
2023/10/19 02:02:35;;;;;;;4.43;2.40;;;16.40;99.90;;;;;;5041182;28;20206;-60
2023/10/19 02:05:09;;;;;;;4.00;2.20;;;16.50;99.90;;;;;;5040777;28;20190;-61
2023/10/19 02:07:35;;;;;;;3.25;2.25;;;16.60;99.90;;;;;;5043372;28;20613;-61
2023/10/19 02:10:05;;;;;;;4.75;2.60;;;16.60;99.90;;;;;;5043823;28;20221;-62
2023/10/19 02:12:34;;;;;;;5.63;2.53;;;16.80;99.90;;;;;;5041663;28;20260;-62
2023/10/19 02:15:01;;;;;;;4.72;2.80;;;16.90;99.90;;;;;;5040516;28;20272;-62
2023/10/19 02:17:27;;;;;;;6.40;3.25;;;16.90;99.90;;;;;;5042036;28;20214;-61
2023/10/19 02:19:54;;;;;;;4.45;2.78;;;16.80;99.90;;;;;;5043765;28;20263;-61
2023/10/19 02:22:20;;;;;;;7.07;3.10;;;16.80;99.90;;;;;;5042759;28;20271;-61
2023/10/19 02:24:46;;;;;;;3.88;2.83;;;16.60;99.90;;;;;;5040899;28;20226;-61
2023/10/19 02:27:14;;;;;;;4.47;3.53;;;16.70;99.90;;;;;;5039212;28;20664;-61
2023/10/19 02:29:41;;;;;;;5.00;3.60;;;16.50;99.90;;;;;;5032198;28;20321;-62
2023/10/19 02:32:07;;;;;;;5.90;3.90;;;16.40;99.90;;;;;;5039948;28;20696;-62
2023/10/19 02:34:34;;;;;;;4.30;3.38;;;16.30;99.90;;;;;;5042641;28;20222;-61
2023/10/19 02:37:02;;;;;;;6.00;3.85;;;16.10;99.90;;;;;;5043503;28;20339;-61
2023/10/19 02:39:28;;;;;;;4.65;3.33;;;16.00;99.90;;;;;;5041258;28;20675;-61
2023/10/19 02:41:55;;;;;;;5.13;3.75;;;15.90;99.90;;;;;;5040126;28;20252;-61
2023/10/19 02:44:25;;;;;;;4.18;3.47;;;15.80;99.90;;;;;;5040923;28;20629;-61
2023/10/19 02:46:58;;;;;;;7.55;4.05;;;15.80;99.90;;;;;;5043040;28;20198;-61
2023/10/19 02:49:25;;;;;;;4.85;4.00;;;15.90;99.90;;;;;;5041761;28;20229;-61
2023/10/19 02:51:53;;;;;;;5.00;4.18;;;15.90;99.90;;;;;;5039804;28;20211;-61
2023/10/19 02:54:22;;;;;;;8.73;3.78;;;15.90;99.90;;;;;;5040261;28;20249;-62
2023/10/19 02:56:51;;;;;;;4.32;3.92;;;15.90;99.90;;;;;;5043017;28;20208;-61
2023/10/19 02:59:22;;;;;;;5.13;3.70;;;15.90;99.90;;;;;;5041983;28;20218;-61
2023/10/19 03:01:51;;;;;;;5.10;3.75;;;15.90;99.90;;;;;;5039449;28;20198;-62
2023/10/19 03:04:17;;;;;;;6.10;4.07;;;15.90;99.90;;;;;;5039914;28;20206;-61
2023/10/19 03:06:44;;;;;;;6.00;4.15;;;16.00;99.90;;;;;;5043125;28;20200;-61
2023/10/19 03:09:13;;;;;;;7.88;3.92;;;16.00;99.90;;;;;;5042463;28;20629;-60
2023/10/19 03:11:41;;;;;;;6.88;5.38;;;15.60;99.90;;;;;;5039389;28;20611;-62
2023/10/19 03:14:08;;;;;;;7.07;4.55;;;16.00;99.90;;;;;;5039129;28;20707;-61
2023/10/19 03:16:35;;;;;;;7.47;5.25;;;16.00;99.90;;;;;;5041796;28;20198;-61
2023/10/19 03:19:03;;;;;;;5.82;4.40;;;15.90;99.90;;;;;;5042645;28;20205;-61
2023/10/19 03:21:33;;;;;;;6.03;4.50;;;15.70;99.90;;;;;;5040652;28;20603;-61
2023/10/19 03:24:01;;;;;;;4.63;4.13;;;15.60;99.90;;;;;;5039292;28;20662;-62
2023/10/19 03:26:36;;;;;;;5.00;4.15;;;15.50;99.90;;;;;;5040873;28;20210;-62
2023/10/19 03:29:07;;;;;;;5.10;4.53;;;15.30;99.90;;;;;;5042739;28;20219;-61
2023/10/19 03:31:37;;;;;;;5.93;5.20;;;15.40;99.90;;;;;;5040236;28;20225;-61
2023/10/19 03:34:06;;;;;;;5.73;5.07;;;15.30;99.90;;;;;;5037631;28;20228;-61
2023/10/19 03:36:33;;;;;;;8.00;5.23;;;15.10;99.90;;;;;;5040325;28;20201;-61
2023/10/19 03:39:11;;;;;;;6.77;5.17;;;15.00;99.90;;;;;;5038638;28;20228;-62
2023/10/19 03:41:39;;;;;;;6.93;5.50;;;14.80;99.90;;;;;;5042058;28;20209;-60
2023/10/19 03:44:13;;;;;;;7.53;6.00;;;14.70;99.90;;;;;;5042294;28;20713;-61
2023/10/19 03:46:52;;;;;;;6.27;5.67;;;14.60;99.90;;;;;;5039148;28;20585;-61
2023/10/19 03:49:22;;;;;;;8.20;6.00;;;14.50;99.90;;;;;;5038954;28;20293;-61
2023/10/19 03:52:00;;;;;;;8.23;5.50;;;14.40;99.90;;;;;;5042138;28;20718;-60
2023/10/19 03:54:27;;;;;;;8.57;5.67;;;14.30;99.90;;;;;;5040963;28;20295;-60
2023/10/19 03:56:55;;;;;;;7.93;6.27;;;14.30;99.90;;;;;;5039039;28;20229;-61
2023/10/19 03:59:22;;;;;;;8.33;5.30;;;14.40;99.90;;;;;;5038879;28;20285;-61
2023/10/19 04:01:49;;;;;;;9.83;5.97;;;14.40;99.90;;;;;;5068567;22;20236;-57
2023/10/19 04:04:16;;;;;;;9.50;6.03;;;14.30;99.90;;;;;;5038846;28;20194;-57
2023/10/19 04:06:48;;;;;;;8.30;5.23;;;14.30;99.90;;;;;;5042514;28;20284;-57
2023/10/19 04:09:17;;;;;;;8.27;5.50;;;14.20;99.90;;;;;;5042113;28;20226;-57
2023/10/19 04:11:49;;;;;;;7.53;6.13;;;14.20;99.90;;;;;;5042177;28;20308;-57
2023/10/19 04:14:16;;;;;;;6.77;5.90;;;14.10;99.90;;;;;;5050386;28;20221;-57
2023/10/19 04:16:44;;;;;;;8.53;5.40;;;14.10;99.90;;;;;;5042009;28;20284;-58
2023/10/19 04:19:10;;;;;;;7.07;5.63;;;14.10;99.90;;;;;;5050330;28;20230;-58
2023/10/19 04:21:38;;;;;;;6.40;5.80;;;14.10;99.90;;;;;;5050245;28;20690;-58
2023/10/19 04:24:09;;;;;;;8.23;5.97;;;14.10;99.90;;;;;;5050420;28;20663;-57
2023/10/19 04:26:37;;;;;;;7.83;5.63;;;14.10;99.90;;;;;;5050269;28;20281;-57
2023/10/19 04:29:10;;;;;;;8.23;5.40;;;14.00;99.90;;;;;;5050051;28;20237;-57
2023/10/19 04:31:47;;;;;;;8.67;5.73;;;14.00;99.90;;;;;;5050309;28;20236;-57
2023/10/19 04:34:14;;;;;;;7.20;6.00;;;14.00;99.90;;;;;;5050760;28;20225;-56
2023/10/19 04:36:42;;;;;;;10.57;6.50;;;14.00;99.90;;;;;;5050010;28;20247;-57
2023/10/19 04:39:13;;;;;;;10.63;6.40;;;14.00;99.90;;;;;;5049974;28;20231;-57
2023/10/19 04:41:40;;;;;;;9.93;5.70;;;13.90;99.90;;;;;;5050122;28;20226;-56
2023/10/19 04:44:08;;;;;;;8.77;6.23;;;13.90;99.90;;;;;;5050166;28;20634;-56
2023/10/19 04:46:34;;;;;;;7.80;5.20;;;14.00;99.90;;;;;;5049988;28;20210;-57
2023/10/19 04:49:02;;;;;;;6.03;3.97;;;14.00;99.90;;;;;;5049809;28;20614;-58
2023/10/19 04:51:29;;;;;;;6.20;4.07;;;14.10;99.90;;;;;;5051868;28;20780;-57
2023/10/19 04:53:56;;;;;;;5.87;4.27;;;14.20;99.90;;;;;;5053875;28;20209;-57
2023/10/19 04:56:24;;;;;;;4.30;3.90;;;14.30;99.90;;;;;;5053132;28;20255;-57
2023/10/19 04:58:50;;;;;;;6.10;3.90;;;14.40;99.90;;;;;;5052932;28;20201;-56
2023/10/19 05:01:17;;;;;;;7.50;3.80;;;14.50;99.90;;;;;;5053177;28;20229;-56
2023/10/19 05:03:44;;;;;;;5.10;3.80;;;14.50;99.90;;;;;;5053359;28;20202;-58
2023/10/19 05:06:11;;;;;;;6.47;3.83;;;14.60;99.90;;;;;;5053045;28;20629;-57
2023/10/19 05:08:38;;;;;;;5.93;4.13;;;14.60;99.90;;;;;;5053679;28;20292;-57
2023/10/19 05:11:05;;;;;;;9.10;4.97;;;14.60;99.90;;;;;;5052850;28;20714;-57
2023/10/19 05:13:33;;;;;;;7.40;4.90;;;14.50;99.90;;;;;;5052972;28;20206;-57
2023/10/19 05:16:00;;;;;;;9.70;5.70;;;14.50;99.90;;;;;;5053657;28;20318;-58
2023/10/19 05:18:27;;;;;;;8.17;6.43;;;14.40;99.90;;;;;;5053259;28;20209;-57
2023/10/19 05:20:56;;;;;;;9.13;6.40;;;14.30;99.90;;;;;;5052841;28;20233;-58
2023/10/19 05:23:24;;;;;;;8.57;5.50;;;14.20;99.90;;;;;;5053006;28;20366;-57
2023/10/19 05:25:52;;;;;;;8.17;6.33;;;14.20;99.90;;;;;;5053159;28;20635;-57
2023/10/19 05:28:19;;;;;;;8.10;6.60;;;14.20;99.90;;;;;;5053340;28;20225;-57
2023/10/19 05:30:48;;;;;;;11.80;5.83;;;14.10;99.90;;;;;;5045124;28;20304;-57
2023/10/19 05:33:15;;;;;;;8.00;6.17;;;14.10;99.90;;;;;;5053141;28;20212;-56
2023/10/19 05:35:43;;;;;;;9.23;6.87;;;14.10;99.90;;;;;;5052879;28;20217;-56
2023/10/19 05:38:10;;;;;;;8.77;6.47;;;14.00;99.90;;;;;;5052636;28;20222;-57
2023/10/19 05:40:38;;;;;;;7.40;5.60;;;14.00;99.90;;;;;;5052814;28;20244;-56
2023/10/19 05:43:07;;;;;;;6.67;5.97;;;13.90;99.90;;;;;;5052596;28;20202;-56
2023/10/19 05:45:36;;;;;;;6.10;5.50;;;13.90;99.90;;;;;;5052531;28;20284;-56
2023/10/19 05:48:06;;;;;;;9.87;6.50;;;13.90;99.90;;;;;;5052640;28;20209;-56
2023/10/19 05:50:33;;;;;;;9.03;5.20;;;13.90;99.90;;;;;;5052450;28;20229;-56
2023/10/19 05:52:59;;;;;;;7.23;5.87;;;13.90;99.90;;;;;;5052752;28;20255;-56
2023/10/19 05:55:26;;;;;;;8.27;6.37;;;13.90;99.90;;;;;;5052844;28;20599;-57
2023/10/19 05:57:53;;;;;;;8.90;7.17;;;13.90;99.90;;;;;;5052435;28;20206;-57
2023/10/19 06:00:21;;;;;;;10.73;7.60;;;13.90;99.90;;;;;;5052245;28;20243;-57
2023/10/19 06:02:49;;;;;;;11.17;7.00;;;13.90;99.90;;;;;;5044389;28;20220;-56
2023/10/19 06:05:19;;;;;;;9.37;5.10;;;13.80;99.90;;;;;;5052210;28;20717;-56
2023/10/19 06:07:46;;;;;;;4.87;4.13;;;13.90;99.90;;;;;;5052327;28;20202;-57
2023/10/19 06:10:16;;;;;;;5.57;4.33;;;13.90;99.90;;;;;;5052136;28;20245;-57
2023/10/19 06:12:44;;;;;;;7.90;4.20;;;14.00;99.90;;;;;;5052025;28;20721;-57
2023/10/19 06:15:12;;;;;;;5.03;3.97;;;14.10;99.90;;;;;;5052339;28;20221;-57
2023/10/19 06:17:39;;;;;;;5.17;4.03;;;14.20;99.90;;;;;;5052009;28;20267;-56
2023/10/19 06:20:08;;;;;;;5.67;4.07;;;14.20;99.90;;;;;;5052067;28;20221;-56
2023/10/19 06:22:36;;;;;;;4.50;4.07;;;14.10;99.90;;;;;;5052096;28;20201;-56
2023/10/19 06:25:05;;;;;;;7.03;3.90;;;14.00;99.90;;;;;;5051879;28;20244;-56
2023/10/19 06:27:32;;;;;;;5.30;3.90;;;14.00;99.90;;;;;;5051896;28;20212;-57
2023/10/19 06:29:59;;;;;;;7.10;4.00;;;13.90;99.90;;;;;;5051661;28;20711;-56
2023/10/19 06:32:26;;;;;;;5.70;4.17;;;14.00;99.90;;;;;;5051754;28;20205;-57
2023/10/19 06:34:54;;;;;;;6.83;4.37;;;14.00;99.90;;;;;;5052342;28;20213;-57
2023/10/19 06:37:20;;;;;;;6.53;4.40;;;14.10;99.90;;;;;;5052162;28;20214;-57
2023/10/19 06:39:50;;;;;;;4.83;4.33;;;14.20;99.90;;;;;;5051752;28;20324;-59
2023/10/19 06:42:17;;;;;;;5.43;4.30;;;14.40;99.90;;;;;;5052435;28;20302;-62
2023/10/19 06:44:44;;;;;;;5.83;4.07;;;14.50;99.90;;;;;;5051493;28;20252;-59
2023/10/19 06:47:13;;;;;;;5.87;4.00;;;14.60;99.90;;;;;;5051897;28;20209;-59
2023/10/19 06:49:40;;;;;;;7.33;3.87;;;14.70;99.90;;;;;;5051456;28;20237;-59
2023/10/19 06:52:07;;;;;;;6.27;4.63;;;14.80;99.90;;;;;;5051482;28;20201;-59
2023/10/19 06:54:33;;;;;;;7.13;4.53;;;14.90;99.90;;;;;;5051143;28;20205;-64
2023/10/19 06:57:02;;;;;;;6.10;4.00;;;14.90;99.90;;;;;;5051355;28;20202;-63
2023/10/19 06:59:33;;;;;;;5.87;4.30;;;15.00;99.90;;;;;;5050890;28;20572;-62
2023/10/19 07:02:01;;;;;;;6.50;4.00;;;15.20;99.90;;;;;;5051214;28;20671;-63
2023/10/19 07:04:28;;;;;;;6.13;4.30;;;15.40;99.90;;;;;;5051064;28;20623;-63
2023/10/19 07:06:55;;;;;;;4.63;3.90;;;15.50;99.90;;;;;;5051258;28;20316;-62
2023/10/19 07:09:22;;;;;;;6.28;4.00;;;15.60;99.90;;;;;;5051145;28;20625;-63
2023/10/19 07:11:52;;;;;;;6.67;3.60;;;15.70;99.90;;;;;;5051127;28;20231;-62
2023/10/19 07:14:22;;;;;;;5.57;3.70;;;15.80;99.90;;;;;;5050670;28;20728;-62
2023/10/19 07:16:49;;;;;;;5.88;4.05;;;15.80;99.90;;;;;;5050958;28;20308;-63
2023/10/19 07:19:15;;;;;;;6.20;3.87;;;15.80;99.90;;;;;;5050788;28;20201;-63
2023/10/19 07:21:43;;;;;;;4.18;3.78;;;15.90;99.90;;;;;;5050939;28;20230;-62
2023/10/19 07:24:11;;;;;;;5.88;3.80;;;15.90;99.90;;;;;;5050349;28;20205;-62
2023/10/19 07:26:53;;;;;;;6.65;3.95;;;16.00;99.90;;;;;;5050797;28;20243;-62
2023/10/19 07:29:21;;;;;;;6.22;3.92;;;15.90;99.90;;;;;;5050772;28;20209;-60
2023/10/19 07:31:48;;;;;;;4.20;3.58;;;16.00;99.90;;;;;;5051044;28;20725;-61
2023/10/19 07:34:15;;;;;;;6.30;3.80;;;16.00;99.90;;;;;;5050839;28;20394;-62
2023/10/19 07:36:42;;;;;;;9.50;4.07;;;15.90;99.90;;;;;;5050419;28;20252;-62
2023/10/19 07:39:13;;;;;;;5.22;4.07;;;15.90;99.90;;;;;;5050763;28;20237;-62
2023/10/19 07:41:40;;;;;;;8.50;3.83;;;15.90;99.90;;;;;;5050701;28;20232;-62
2023/10/19 07:44:07;;;;;;;4.32;3.80;;;16.00;99.90;;;;;;5050923;28;20206;-61
2023/10/19 07:46:36;;;;;;;6.13;4.00;;;16.10;99.90;;;;;;5050560;28;20688;-62
2023/10/19 07:49:03;;;;;;;4.93;3.70;;;16.20;99.90;;;;;;5050534;28;20232;-62
2023/10/19 07:51:30;;;;;;;7.60;4.30;;;16.30;99.90;;;;;;5050536;28;20302;-61
2023/10/19 07:53:57;;;;;;;6.25;3.85;;;16.40;99.90;;;;;;5051207;28;20238;-62
2023/10/19 07:56:24;;;;;;;7.88;3.92;;;16.40;99.90;;;;;;5050627;28;20221;-60
2023/10/19 07:58:51;;;;;;;5.55;3.70;;;16.50;99.90;;;;;;5042545;28;20209;-62
2023/10/19 08:01:17;;;;;;;7.13;3.55;;;16.70;99.90;;;;;;5050486;28;20229;-62
2023/10/19 08:03:45;;;;;;;6.55;3.50;;;16.70;99.90;;;;;;5050510;28;20201;-62
2023/10/19 08:06:12;;;;;;;4.18;3.55;;;16.90;99.90;;;;;;5050808;28;20206;-61
2023/10/19 08:08:39;;;;;;;6.57;3.30;;;16.90;99.90;;;;;;5050242;28;20311;-61
2023/10/19 08:11:06;;;;;;;9.00;3.83;;;16.90;99.90;;;;;;5050479;28;20225;-62
2023/10/19 08:13:33;;;;;;;4.53;3.80;;;16.90;99.90;;;;;;5050539;28;20241;-62
2023/10/19 08:15:59;;;;;;;8.63;3.40;;;17.00;99.90;;;;;;5050605;28;20703;-64
2023/10/19 08:18:26;;;;;;;3.83;3.30;;;17.20;99.90;;;;;;5050605;28;20229;-60
2023/10/19 08:20:55;;;;;;;5.80;4.18;;;17.40;99.90;;;;;;5050295;28;20225;-62
2023/10/19 08:23:27;;;;;;;14.70;5.63;;;17.60;99.90;;;;;;5050522;28;20240;-62
2023/10/19 08:25:54;;;;;;;32.65;7.72;;;17.80;99.90;;;;;;5053344;28;20194;-61
2023/10/19 08:28:22;;;;;;;5.65;3.30;;;18.00;99.90;;;;;;5054972;28;20672;-62
2023/10/19 08:30:57;;;;;;;5.35;3.08;;;18.10;99.90;;;;;;5053964;28;20786;-60
2023/10/19 08:33:25;;;;;;;9.40;3.05;;;18.20;99.90;;;;;;5054717;28;20284;-62
2023/10/19 08:35:54;;;;;;;4.28;3.10;;;18.30;99.90;;;;;;5054289;28;20217;-61
2023/10/19 08:38:21;;;;;;;6.72;2.90;;;18.40;99.90;;;;;;5054249;28;20240;-61
2023/10/19 08:40:50;;;;;;;3.92;3.05;;;18.50;99.90;;;;;;5053799;28;20221;-62
2023/10/19 08:43:18;;;;;;;5.28;3.08;;;18.60;99.90;;;;;;5054049;28;20209;-60
2023/10/19 08:45:45;;;;;;;4.68;2.95;;;18.60;99.90;;;;;;5053597;28;20681;-60
2023/10/19 08:48:12;;;;;;;3.83;2.67;;;18.60;99.90;;;;;;5053632;28;20209;-61
2023/10/19 08:50:39;;;;;;;3.65;2.58;;;18.60;99.90;;;;;;5053795;28;20230;-61
2023/10/19 08:53:09;;;;;;;5.03;2.67;;;18.70;99.90;;;;;;5053872;28;20206;-57
2023/10/19 08:55:36;;;;;;;6.68;2.72;;;18.70;99.90;;;;;;5053478;28;20768;-57
2023/10/19 08:58:05;;;;;;;5.22;3.17;;;18.60;99.90;;;;;;5053530;28;20224;-57
2023/10/19 09:00:46;;;;;;;4.80;2.88;;;18.60;99.90;;;;;;5053008;28;20280;-56
2023/10/19 09:03:14;;;;;;;4.50;2.45;;;18.60;99.90;;;;;;5053571;28;20681;-57
2023/10/19 09:05:41;;;;;;;3.60;2.38;;;18.60;99.90;;;;;;5053494;28;20264;-57
2023/10/19 09:08:09;;;;;;;3.53;2.40;;;18.50;99.90;;;;;;5053892;28;20304;-56
2023/10/19 09:10:37;;;;;;;6.50;2.58;;;18.30;99.90;;;;;;5052991;28;20648;-58
2023/10/19 09:13:07;;;;;;;4.07;2.67;;;18.30;99.90;;;;;;5053710;28;20292;-57
2023/10/19 09:15:35;;;;;;;6.18;2.58;;;18.30;99.90;;;;;;5052737;28;20228;-56
2023/10/19 09:18:14;;;;;;;4.85;2.72;;;18.20;99.90;;;;;;5053383;28;20340;-58
2023/10/19 09:20:47;;;;;;;4.82;2.88;;;18.10;99.90;;;;;;5052912;28;20263;-61
2023/10/19 09:23:15;;;;;;;6.63;2.83;;;18.00;99.90;;;;;;5053510;28;20271;-60
2023/10/19 09:25:42;;;;;;;5.32;2.63;;;18.00;99.90;;;;;;5053116;28;20210;-60
2023/10/19 09:28:10;;;;;;;3.85;2.55;;;18.10;99.90;;;;;;5053336;28;20201;-59
2023/10/19 09:30:38;;;;;;;5.75;2.85;;;18.30;99.90;;;;;;5050603;28;20248;-59
2023/10/19 09:33:06;;;;;;;3.78;2.40;;;18.20;99.90;;;;;;5052632;28;20206;-58
2023/10/19 09:35:37;;;;;;;3.03;2.10;;;18.80;99.90;;;;;;5052446;28;20225;-59
2023/10/19 09:38:06;;;;;;;3.38;2.25;;;19.00;99.90;;;;;;5052345;28;20660;-59
2023/10/19 09:40:34;;;;;;;4.00;2.28;;;19.20;99.90;;;;;;5052494;28;20230;-59
2023/10/19 09:43:06;;;;;;;5.43;2.60;;;19.30;99.90;;;;;;5053115;28;20248;-58
2023/10/19 09:45:35;;;;;;;5.25;2.30;;;19.40;99.90;;;;;;5052627;28;20628;-59
2023/10/19 09:48:06;;;;;;;4.70;2.78;;;19.50;99.90;;;;;;5052754;28;20206;-58
2023/10/19 09:50:33;;;;;;;5.30;3.05;;;19.60;99.90;;;;;;5052265;28;20232;-61
2023/10/19 09:53:00;;;;;;;5.75;2.53;;;19.70;99.90;;;;;;5052692;28;20285;-59
2023/10/19 09:55:38;;;;;;;5.47;2.50;;;19.80;99.90;;;;;;5052583;28;20224;-59
2023/10/19 09:58:14;;;;;;;2.50;1.90;;;19.90;99.90;;;;;;5045673;28;20197;-59
2023/10/19 10:00:44;;;;;;;4.53;2.20;;;19.90;99.90;;;;;;5070939;22;20235;-61
2023/10/19 10:03:45;;;;;;;4.75;3.03;;;19.80;99.90;;;;;;5072589;28;20205;-62
2023/10/19 10:06:14;;;;;;;4.85;2.10;;;19.90;99.90;;;;;;5066634;28;20579;-62
2023/10/19 10:08:42;;;;;;;3.35;2.10;;;19.90;99.90;;;;;;5072212;28;20209;-63
2023/10/19 10:11:22;;;;;;;4.10;2.17;;;19.90;99.90;;;;;;5066363;28;20249;-62
2023/10/19 10:13:51;;;;;;;3.30;2.35;;;19.90;99.90;;;;;;5062929;28;20208;-63
2023/10/19 10:16:19;;;;;;;4.40;2.45;;;20.10;99.90;;;;;;5063628;28;20216;-62
2023/10/19 10:18:51;;;;;;;3.95;2.47;;;20.30;99.90;;;;;;5061373;28;20299;-61
2023/10/19 10:21:20;;;;;;;4.75;2.25;;;20.50;99.90;;;;;;5060090;28;20248;-61
2023/10/19 10:23:49;;;;;;;4.45;2.50;;;20.70;99.90;;;;;;5062656;28;20201;-60
2023/10/19 10:26:17;;;;;;;4.30;2.67;;;20.60;99.90;;;;;;5063281;28;20200;-61
2023/10/19 10:28:48;;;;;;;4.28;2.50;;;20.50;99.90;;;;;;5058331;28;20440;-67
2023/10/19 10:31:22;;;;;;;4.15;2.40;;;20.80;99.90;;;;;;5058357;28;20256;-59
2023/10/19 10:33:51;;;;;;;5.72;2.40;;;20.90;99.90;;;;;;5060782;28;20298;-60
2023/10/19 10:36:19;;;;;;;3.20;2.20;;;21.10;99.90;;;;;;5060058;28;20229;-60
2023/10/19 10:38:47;;;;;;;3.80;2.00;;;21.20;99.90;;;;;;5062544;28;20205;-60
2023/10/19 10:41:20;;;;;;;6.72;2.40;;;21.20;99.90;;;;;;5064642;28;20220;-62
2023/10/19 10:43:52;;;;;;;3.75;2.22;;;21.30;99.90;;;;;;5061305;28;20512;-61
2023/10/19 10:46:21;;;;;;;3.58;2.22;;;21.30;99.90;;;;;;5059625;28;20247;-61
2023/10/19 10:48:49;;;;;;;3.90;2.17;;;21.20;99.90;;;;;;5060592;28;20216;-60
2023/10/19 10:51:17;;;;;;;5.05;2.50;;;21.10;99.90;;;;;;5062983;28;20580;-60
2023/10/19 10:53:43;;;;;;;4.85;3.78;;;21.10;99.90;;;;;;5061245;28;20220;-60
2023/10/19 10:56:10;;;;;;;6.30;2.42;;;21.30;99.90;;;;;;5059732;28;20217;-61
2023/10/19 10:58:37;;;;;;;5.95;2.53;;;21.50;99.90;;;;;;5060795;28;20205;-61
2023/10/19 11:01:03;;;;;;;5.15;2.95;;;21.60;99.90;;;;;;5062948;28;20250;-64
2023/10/19 11:03:32;;;;;;;4.57;1.90;;;21.70;99.90;;;;;;5063128;28;20205;-61
2023/10/19 11:06:04;;;;;;;4.18;2.42;;;21.70;99.90;;;;;;5059692;28;20220;-60
2023/10/19 11:08:32;;;;;;;4.75;2.88;;;21.60;99.90;;;;;;5059527;28;20213;-60
2023/10/19 11:11:04;;;;;;;6.40;2.30;;;21.70;99.90;;;;;;5058697;28;20229;-61
2023/10/19 11:13:33;;;;;;;5.28;1.73;;;21.80;99.90;;;;;;5059232;28;20236;-61
2023/10/19 11:16:01;;;;;;;3.00;1.90;;;21.90;99.90;;;;;;5062481;28;20316;-61
2023/10/19 11:18:35;;;;;;;3.97;2.05;;;22.00;99.90;;;;;;5062893;28;20812;-60
2023/10/19 11:21:05;;;;;;;4.85;2.00;;;22.10;99.90;;;;;;5051249;28;20217;-60
2023/10/19 11:23:42;;;;;;;4.93;1.63;;;22.20;99.90;;;;;;5059203;28;20706;-61
2023/10/19 11:26:10;;;;;;;6.22;1.75;;;22.20;99.90;;;;;;5062287;28;20232;-61
2023/10/19 11:28:42;;;;;;;6.53;2.50;;;22.20;99.90;;;;;;5061818;28;20243;-60
2023/10/19 11:31:17;;;;;;;3.28;2.08;;;22.20;99.90;;;;;;5058898;28;20240;-59
2023/10/19 11:33:48;;;;;;;2.45;1.77;;;22.10;99.90;;;;;;5061356;28;20225;-61
2023/10/19 11:36:15;;;;;;;2.55;1.60;;;22.00;99.90;;;;;;5063117;28;20626;-61
2023/10/19 11:38:43;;;;;;;3.58;1.60;;;21.90;99.90;;;;;;5061417;28;20216;-62
2023/10/19 11:41:10;;;;;;;3.65;1.70;;;21.90;99.90;;;;;;5058990;28;20233;-61
2023/10/19 11:43:37;;;;;;;4.20;1.73;;;21.70;99.90;;;;;;5059829;28;20642;-61
2023/10/19 11:46:05;;;;;;;1.88;1.60;;;21.60;99.90;;;;;;5062415;28;20208;-61
2023/10/19 11:48:33;;;;;;;5.40;1.98;;;21.40;99.90;;;;;;5062603;28;20244;-61
2023/10/19 11:51:03;;;;;;;5.20;1.90;;;21.30;99.90;;;;;;5058771;28;20733;-61
2023/10/19 11:53:33;;;;;;;6.72;2.00;;;21.20;99.90;;;;;;5059467;28;20331;-61
2023/10/19 11:56:00;;;;;;;6.35;2.03;;;21.10;99.90;;;;;;5051255;28;20353;-62
2023/10/19 11:58:27;;;;;;;6.85;2.13;;;21.00;99.90;;;;;;5059191;28;20670;-63
2023/10/19 12:00:54;;;;;;;5.05;1.83;;;20.90;99.90;;;;;;5061561;28;20239;-62
2023/10/19 12:03:21;;;;;;;3.67;2.13;;;20.90;99.90;;;;;;5062604;28;20212;-61
2023/10/19 12:05:48;;;;;;;5.72;1.90;;;20.80;99.90;;;;;;5060192;28;20212;-61
2023/10/19 12:08:17;;;;;;;2.25;1.65;;;20.80;99.90;;;;;;5059179;28;20208;-63
2023/10/19 12:10:43;;;;;;;2.85;1.45;;;20.70;99.90;;;;;;5060657;28;20229;-61
2023/10/19 12:13:10;;;;;;;2.85;1.83;;;20.60;99.90;;;;;;5062463;28;20209;-62
2023/10/19 12:15:37;;;;;;;2.60;1.63;;;20.60;99.90;;;;;;5061778;28;20209;-61
2023/10/19 12:18:05;;;;;;;3.47;1.70;;;20.60;99.90;;;;;;5058591;28;20709;-61
2023/10/19 12:20:32;;;;;;;2.30;1.83;;;20.50;99.90;;;;;;5058949;28;20232;-61
2023/10/19 12:22:58;;;;;;;3.38;1.95;;;20.50;99.90;;;;;;5051216;28;20620;-62
2023/10/19 12:25:29;;;;;;;3.13;2.28;;;20.60;99.90;;;;;;5059399;28;20209;-62
2023/10/19 12:27:58;;;;;;;3.00;2.15;;;20.40;99.90;;;;;;5062085;28;20623;-62
2023/10/19 12:30:26;;;;;;;2.55;1.60;;;20.30;99.90;;;;;;5062493;28;20270;-62
2023/10/19 12:32:53;;;;;;;3.63;2.20;;;20.20;99.90;;;;;;5059650;28;22278;-65
2023/10/19 12:35:24;;;;;;;4.53;2.40;;;20.10;99.90;;;;;;5059422;28;20224;-62
2023/10/19 12:37:52;;;;;;;4.00;2.50;;;20.10;99.90;;;;;;5060909;28;20217;-62
2023/10/19 12:40:28;;;;;;;4.10;2.15;;;19.90;99.90;;;;;;5062037;28;20346;-61
2023/10/19 12:42:57;;;;;;;2.00;1.60;;;19.80;99.90;;;;;;5059273;28;20267;-62
2023/10/19 12:45:25;;;;;;;3.28;2.00;;;19.50;99.90;;;;;;5059192;28;20693;-62
2023/10/19 12:47:52;;;;;;;4.57;1.88;;;19.20;99.90;;;;;;5061031;28;20224;-60
2023/10/19 12:50:22;;;;;;;4.65;1.98;;;19.10;99.90;;;;;;5061560;28;20244;-61
2023/10/19 12:52:49;;;;;;;3.97;2.03;;;19.00;99.90;;;;;;5061461;28;20240;-60
2023/10/19 12:55:16;;;;;;;2.83;2.08;;;19.10;99.90;;;;;;5061682;28;20208;-61